createdAt,value
2018-07-27T00:02:12.013Z,25.80
2018-07-27T00:04:39.520Z,25.80
2018-07-27T00:07:06.758Z,25.90
2018-07-27T00:09:34.214Z,25.80
2018-07-27T00:12:01.356Z,25.90
2018-07-27T00:14:28.488Z,25.90
2018-07-27T00:16:55.642Z,25.80
2018-07-27T00:19:22.792Z,25.80
2018-07-27T00:21:49.938Z,25.80
2018-07-27T00:24:17.083Z,25.70
2018-07-27T00:26:44.235Z,25.80
2018-07-27T00:29:11.475Z,25.70
2018-07-27T00:31:38.786Z,25.60
2018-07-27T00:34:06.111Z,25.60
2018-07-27T00:36:33.325Z,25.60
2018-07-27T00:39:00.448Z,25.50
2018-07-27T00:41:27.567Z,25.50
2018-07-27T00:43:54.716Z,25.30
2018-07-27T00:46:21.861Z,25.30
2018-07-27T00:48:48.990Z,25.30
2018-07-27T00:51:16.119Z,25.30
2018-07-27T00:53:43.418Z,25.20
2018-07-27T00:56:10.724Z,25.10
2018-07-27T00:58:38.067Z,25.00
2018-07-27T01:01:05.329Z,24.90
2018-07-27T01:05:59.838Z,24.80
2018-07-27T01:08:26.971Z,24.70
2018-07-27T01:10:54.147Z,24.40
2018-07-27T01:13:21.295Z,24.50
2018-07-27T01:15:48.434Z,24.40
2018-07-27T01:18:15.567Z,24.20
2018-07-27T01:20:42.730Z,24.00
2018-07-27T01:23:09.960Z,24.00
2018-07-27T01:25:37.574Z,23.90
2018-07-27T01:28:05.085Z,24.00
2018-07-27T01:30:32.264Z,23.80
2018-07-27T01:32:59.386Z,23.80
2018-07-27T01:35:26.704Z,23.80
2018-07-27T01:37:53.912Z,23.80
2018-07-27T01:40:21.072Z,23.70
2018-07-27T01:42:48.257Z,23.60
2018-07-27T01:45:15.373Z,23.50
2018-07-27T01:47:42.482Z,23.50
2018-07-27T01:50:09.704Z,23.50
2018-07-27T01:52:36.927Z,23.40
2018-07-27T01:55:04.103Z,23.40
2018-07-27T01:57:31.245Z,23.40
2018-07-27T01:59:58.374Z,23.50
2018-07-27T02:02:25.529Z,23.40
2018-07-27T02:04:52.641Z,23.30
2018-07-27T02:07:19.768Z,23.20
2018-07-27T02:09:46.914Z,23.20
2018-07-27T02:12:14.054Z,23.20
2018-07-27T02:14:41.205Z,23.20
2018-07-27T02:17:08.443Z,23.20
2018-07-27T02:19:35.648Z,23.10
2018-07-27T02:22:02.785Z,23.20
2018-07-27T02:24:29.913Z,23.30
2018-07-27T02:26:57.033Z,23.30
2018-07-27T02:29:24.141Z,23.30
2018-07-27T02:31:51.301Z,23.30
2018-07-27T02:34:18.386Z,23.20
2018-07-27T02:39:12.841Z,23.20
2018-07-27T02:41:40.263Z,23.10
2018-07-27T02:44:08.094Z,23.10
2018-07-27T02:46:35.471Z,23.10
2018-07-27T02:49:02.734Z,23.10
2018-07-27T02:51:29.967Z,23.00
2018-07-27T02:53:57.248Z,23.10
2018-07-27T02:56:24.383Z,22.90
2018-07-27T02:58:51.769Z,23.00
2018-07-27T03:01:18.876Z,22.90
2018-07-27T03:03:45.987Z,22.80
2018-07-27T03:06:17.185Z,22.80
2018-07-27T03:08:45.138Z,22.80
2018-07-27T03:11:12.301Z,22.80
2018-07-27T03:13:39.395Z,22.70
2018-07-27T03:16:06.617Z,22.80
2018-07-27T03:18:33.762Z,22.80
2018-07-27T03:21:00.879Z,22.80
2018-07-27T03:23:27.989Z,22.80
2018-07-27T03:25:55.156Z,22.80
2018-07-27T03:28:22.261Z,22.60
2018-07-27T03:30:49.378Z,22.50
2018-07-27T03:33:16.501Z,22.60
2018-07-27T03:35:43.618Z,22.70
2018-07-27T03:38:10.800Z,22.60
2018-07-27T03:40:37.950Z,22.40
2018-07-27T03:43:05.121Z,22.50
2018-07-27T03:45:32.284Z,22.40
2018-07-27T03:48:02.559Z,22.50
2018-07-27T03:50:29.724Z,22.30
2018-07-27T03:52:56.861Z,22.20
2018-07-27T03:55:24.082Z,22.20
2018-07-27T03:57:51.292Z,22.10
2018-07-27T04:00:18.444Z,22.20
2018-07-27T04:02:45.584Z,22.20
2018-07-27T04:05:12.711Z,22.20
2018-07-27T04:07:39.835Z,22.40
2018-07-27T04:10:07.227Z,22.60
2018-07-27T04:12:34.388Z,22.60
2018-07-27T04:17:28.682Z,22.60
2018-07-27T04:19:55.797Z,22.60
2018-07-27T04:22:22.969Z,22.70
2018-07-27T04:24:51.073Z,22.80
2018-07-27T04:27:18.234Z,22.90
2018-07-27T04:29:45.363Z,22.80
2018-07-27T04:32:12.545Z,23.10
2018-07-27T04:34:39.809Z,23.20
2018-07-27T04:37:07.304Z,23.20
2018-07-27T04:39:34.438Z,23.30
2018-07-27T04:42:01.587Z,23.40
2018-07-27T04:44:28.732Z,23.40
2018-07-27T04:46:55.884Z,23.40
2018-07-27T04:49:23.197Z,23.50
2018-07-27T04:51:50.580Z,23.60
2018-07-27T04:54:17.681Z,23.70
2018-07-27T04:56:44.856Z,23.90
2018-07-27T04:59:11.959Z,24.20
2018-07-27T05:01:39.149Z,24.60
2018-07-27T05:04:06.364Z,25.30
2018-07-27T05:06:33.517Z,26.40
2018-07-27T05:09:06.498Z,28.20
2018-07-27T05:11:33.629Z,30.10
2018-07-27T05:14:00.781Z,31.00
2018-07-27T05:16:27.979Z,32.10
2018-07-27T05:18:55.121Z,32.70
2018-07-27T05:21:22.272Z,33.10
2018-07-27T05:23:49.550Z,33.80
2018-07-27T05:26:16.738Z,34.30
2018-07-27T05:28:43.887Z,35.00
2018-07-27T05:31:11.067Z,35.40
2018-07-27T05:33:38.275Z,35.90
2018-07-27T05:36:05.569Z,36.60
2018-07-27T05:38:32.805Z,37.30
2018-07-27T05:40:59.974Z,37.90
2018-07-27T05:43:27.173Z,37.80
2018-07-27T05:45:54.393Z,38.20
2018-07-27T05:48:21.519Z,38.40
2018-07-27T05:50:48.746Z,39.10
2018-07-27T05:53:15.901Z,39.10
2018-07-27T05:55:43.225Z,39.50
2018-07-27T05:58:10.373Z,39.40
2018-07-27T06:00:37.535Z,40.30
2018-07-27T06:03:04.782Z,40.80
2018-07-27T06:05:31.956Z,40.80
2018-07-27T06:07:59.121Z,41.40
2018-07-27T06:10:26.339Z,41.60
2018-07-27T06:12:53.493Z,42.50
2018-07-27T06:15:20.654Z,43.20
2018-07-27T06:17:47.836Z,44.00
2018-07-27T06:20:14.969Z,43.80
2018-07-27T06:22:42.107Z,43.30
2018-07-27T06:25:09.318Z,43.80
2018-07-27T06:27:36.579Z,43.90
2018-07-27T06:30:05.255Z,44.90
2018-07-27T06:32:32.368Z,44.10
2018-07-27T06:34:59.501Z,42.20
2018-07-27T06:37:26.705Z,42.70
2018-07-27T06:39:54.337Z,42.50
2018-07-27T06:42:21.462Z,41.40
2018-07-27T06:44:48.613Z,43.00
2018-07-27T06:47:15.738Z,43.10
2018-07-27T06:49:42.895Z,43.50
2018-07-27T06:52:10.026Z,44.20
2018-07-27T06:54:37.183Z,43.00
2018-07-27T06:57:04.597Z,42.90
2018-07-27T06:59:31.756Z,43.10
2018-07-27T07:01:58.888Z,42.90
2018-07-27T07:04:26.022Z,44.30
2018-07-27T07:06:53.190Z,44.50
2018-07-27T07:09:20.320Z,43.70
2018-07-27T07:11:47.470Z,44.70
2018-07-27T07:14:14.608Z,46.00
2018-07-27T07:16:41.735Z,47.00
2018-07-27T07:19:09.317Z,46.60
2018-07-27T07:21:36.903Z,45.70
2018-07-27T07:24:04.279Z,45.20
2018-07-27T07:26:31.514Z,45.70
2018-07-27T07:28:58.969Z,44.80
2018-07-27T07:31:26.161Z,45.00
2018-07-27T07:33:53.271Z,46.40
2018-07-27T07:36:20.463Z,45.90
2018-07-27T07:38:47.601Z,46.30
2018-07-27T07:41:14.733Z,46.90
2018-07-27T07:43:41.935Z,48.40
2018-07-27T07:46:09.025Z,49.00
2018-07-27T07:48:36.726Z,49.50
2018-07-27T07:51:03.939Z,50.20
2018-07-27T07:53:31.105Z,48.90
2018-07-27T07:55:58.369Z,50.30
2018-07-27T07:58:25.542Z,47.00
2018-07-27T08:00:52.711Z,47.50
2018-07-27T08:03:19.857Z,48.80
2018-07-27T08:05:47.041Z,48.70
2018-07-27T08:08:14.185Z,50.20
2018-07-27T08:10:41.362Z,48.60
2018-07-27T08:13:08.462Z,48.30
2018-07-27T08:15:35.606Z,49.40
2018-07-27T08:18:02.751Z,49.00
2018-07-27T08:20:29.913Z,47.90
2018-07-27T08:22:57.049Z,47.40
2018-07-27T08:25:24.763Z,47.30
2018-07-27T08:28:03.983Z,47.70
2018-07-27T08:30:31.147Z,46.70
2018-07-27T08:32:58.351Z,45.80
2018-07-27T08:35:25.494Z,45.90
2018-07-27T08:37:52.712Z,47.00
2018-07-27T08:40:19.825Z,47.60
2018-07-27T08:42:47.022Z,47.30
2018-07-27T08:45:14.196Z,48.40
2018-07-27T08:47:41.328Z,48.00
2018-07-27T08:50:08.480Z,48.30
2018-07-27T08:52:35.664Z,48.50
2018-07-27T08:55:02.809Z,47.00
2018-07-27T08:57:29.953Z,47.70
2018-07-27T08:59:57.093Z,46.10
2018-07-27T09:02:24.284Z,44.60
2018-07-27T09:04:51.441Z,44.60
2018-07-27T09:07:18.576Z,43.20
2018-07-27T09:09:45.806Z,43.20
2018-07-27T09:12:12.918Z,43.90
2018-07-27T09:14:40.058Z,43.60
2018-07-27T09:17:07.207Z,43.50
2018-07-27T09:19:34.361Z,43.00
2018-07-27T09:22:01.481Z,43.60
2018-07-27T09:24:28.672Z,42.60
2018-07-27T09:26:55.717Z,42.00
2018-07-27T09:29:23.013Z,41.90
2018-07-27T09:31:50.146Z,41.00
2018-07-27T09:34:17.288Z,40.70
2018-07-27T09:36:44.481Z,39.70
2018-07-27T09:39:11.605Z,38.00
2018-07-27T09:41:38.918Z,37.40
2018-07-27T09:44:06.617Z,35.80
2018-07-27T09:46:34.032Z,34.60
2018-07-27T09:49:01.161Z,34.00
2018-07-27T09:51:28.309Z,33.90
2018-07-27T09:53:55.545Z,33.70
2018-07-27T09:56:22.644Z,33.70
2018-07-27T09:58:49.887Z,33.40
2018-07-27T10:01:20.993Z,32.90
2018-07-27T10:03:48.116Z,32.80
2018-07-27T10:06:15.334Z,32.50
2018-07-27T10:08:42.493Z,32.40
2018-07-27T10:11:09.698Z,32.60
2018-07-27T10:13:36.902Z,32.40
2018-07-27T10:16:04.929Z,32.40
2018-07-27T10:18:32.134Z,32.30
2018-07-27T10:20:59.288Z,32.20
2018-07-27T10:23:26.484Z,32.40
2018-07-27T10:25:53.646Z,32.60
2018-07-27T10:28:20.801Z,32.60
2018-07-27T10:33:15.113Z,32.90
2018-07-27T10:35:42.251Z,33.00
2018-07-27T10:38:09.387Z,32.50
2018-07-27T10:40:36.577Z,32.60
2018-07-27T10:43:04.097Z,32.30
2018-07-27T10:45:31.257Z,32.20
2018-07-27T10:47:58.374Z,32.50
2018-07-27T10:50:25.493Z,32.50
2018-07-27T10:52:52.632Z,32.70
2018-07-27T10:55:19.794Z,32.70
2018-07-27T10:57:46.920Z,32.70
2018-07-27T11:00:15.121Z,32.40
2018-07-27T11:02:42.295Z,32.30
2018-07-27T11:05:10.057Z,32.40
2018-07-27T11:07:37.328Z,32.20
2018-07-27T11:10:05.928Z,32.20
2018-07-27T11:12:33.257Z,32.20
2018-07-27T11:15:00.397Z,32.00
2018-07-27T11:17:27.638Z,32.00
2018-07-27T11:19:54.820Z,32.20
2018-07-27T11:22:21.994Z,32.30
2018-07-27T11:24:49.116Z,32.60
2018-07-27T11:27:16.247Z,32.60
2018-07-27T11:29:43.816Z,32.60
2018-07-27T11:32:11.026Z,32.40
2018-07-27T11:34:38.215Z,32.50
2018-07-27T11:37:05.570Z,32.70
2018-07-27T11:39:32.683Z,32.60
2018-07-27T11:41:59.846Z,32.60
2018-07-27T11:44:26.990Z,32.60
2018-07-27T11:46:54.138Z,32.70
2018-07-27T11:49:21.381Z,32.80
2018-07-27T11:51:48.528Z,33.00
2018-07-27T11:54:15.671Z,32.70
2018-07-27T11:56:42.808Z,32.70
2018-07-27T11:59:09.921Z,32.80
2018-07-27T12:01:37.202Z,33.00
2018-07-27T12:04:04.476Z,33.00
2018-07-27T12:06:31.633Z,33.00
2018-07-27T12:08:58.739Z,32.90
2018-07-27T12:11:25.864Z,32.90
2018-07-27T12:13:53.102Z,32.90
2018-07-27T12:16:20.176Z,32.80
2018-07-27T12:18:47.322Z,32.80
2018-07-27T12:21:14.597Z,33.00
2018-07-27T12:23:41.582Z,33.10
2018-07-27T12:26:08.837Z,33.20
2018-07-27T12:31:03.374Z,33.20
2018-07-27T12:33:30.587Z,33.10
2018-07-27T12:35:57.701Z,32.90
2018-07-27T12:38:24.926Z,32.90
2018-07-27T12:40:52.076Z,33.10
2018-07-27T12:43:19.309Z,33.40
2018-07-27T12:45:46.461Z,33.50
2018-07-27T12:48:13.634Z,33.40
2018-07-27T12:50:40.761Z,33.40
2018-07-27T12:53:07.915Z,33.60
2018-07-27T12:55:35.070Z,33.50
2018-07-27T12:58:02.212Z,33.70
2018-07-27T13:00:29.465Z,33.70
2018-07-27T13:02:56.657Z,33.80
2018-07-27T13:05:23.909Z,33.80
2018-07-27T13:07:51.216Z,33.90
2018-07-27T13:10:18.391Z,33.80
2018-07-27T13:12:45.530Z,33.70
2018-07-27T13:15:12.678Z,33.60
2018-07-27T13:17:39.851Z,33.60
2018-07-27T13:20:07.119Z,33.60
2018-07-27T13:22:34.387Z,33.60
2018-07-27T13:25:01.542Z,33.80
2018-07-27T13:27:28.686Z,34.00
2018-07-27T13:29:55.839Z,34.10
2018-07-27T13:32:23.151Z,34.00
2018-07-27T13:37:20.507Z,34.00
2018-07-27T13:39:48.486Z,34.10
2018-07-27T13:42:18.112Z,34.00
2018-07-27T13:44:45.562Z,34.10
2018-07-27T13:47:13.249Z,34.30
2018-07-27T13:49:40.437Z,34.50
2018-07-27T13:52:07.686Z,34.70
2018-07-27T13:54:35.301Z,34.60
2018-07-27T13:59:30.172Z,34.40
2018-07-27T14:01:57.951Z,34.50
2018-07-27T14:04:25.137Z,34.50
2018-07-27T14:06:53.535Z,34.80
2018-07-27T14:09:20.701Z,35.10
2018-07-27T14:11:47.889Z,35.20
2018-07-27T14:14:21.807Z,35.00
2018-07-27T14:16:49.268Z,35.00
2018-07-27T14:19:17.254Z,35.10
2018-07-27T14:21:44.458Z,35.30
2018-07-27T14:24:11.587Z,35.40
2018-07-27T14:26:39.038Z,35.40
2018-07-27T14:29:06.304Z,35.10
2018-07-27T14:31:33.475Z,34.70
2018-07-27T14:34:00.603Z,34.20
2018-07-27T14:36:27.729Z,33.90
2018-07-27T14:38:54.870Z,33.60
2018-07-27T14:41:22.005Z,33.40
2018-07-27T14:43:49.479Z,33.10
2018-07-27T14:46:16.608Z,33.00
2018-07-27T14:48:43.771Z,32.70
2018-07-27T14:51:10.984Z,32.60
2018-07-27T14:53:38.401Z,32.50
2018-07-27T14:58:32.912Z,32.50
2018-07-27T15:01:00.107Z,32.50
2018-07-27T15:03:27.265Z,32.70
2018-07-27T15:05:54.903Z,32.80
2018-07-27T15:08:22.110Z,33.00
2018-07-27T15:10:49.275Z,33.10
2018-07-27T15:13:16.510Z,33.30
2018-07-27T15:15:43.939Z,33.30
2018-07-27T15:18:11.075Z,33.20
2018-07-27T15:20:38.235Z,33.10
2018-07-27T15:23:05.418Z,33.20
2018-07-27T15:25:32.921Z,33.30
2018-07-27T15:28:00.106Z,33.30
2018-07-27T15:30:27.253Z,33.20
2018-07-27T15:32:54.590Z,33.00
2018-07-27T15:35:21.738Z,33.10
2018-07-27T15:37:48.913Z,33.10
2018-07-27T15:40:16.186Z,33.10
2018-07-27T15:42:43.342Z,33.20
2018-07-27T15:45:10.486Z,33.20
2018-07-27T15:50:05.612Z,33.00
2018-07-27T15:52:32.767Z,33.10
2018-07-27T15:55:00.089Z,33.20
2018-07-27T15:57:27.245Z,33.20
2018-07-27T15:59:54.413Z,33.20
2018-07-27T16:02:21.593Z,33.10
2018-07-27T16:04:48.774Z,33.10
2018-07-27T16:07:15.969Z,33.20
2018-07-27T16:09:43.206Z,33.30
2018-07-27T16:12:10.581Z,33.30
2018-07-27T16:14:37.890Z,33.40
2018-07-27T16:17:05.177Z,33.40
2018-07-27T16:19:32.327Z,33.40
2018-07-27T16:22:00.066Z,33.30
2018-07-27T16:24:27.333Z,33.30
2018-07-27T16:26:54.767Z,33.20
2018-07-27T16:29:21.975Z,33.30
2018-07-27T16:31:49.153Z,33.30
2018-07-27T16:34:16.317Z,33.30
2018-07-27T16:36:43.560Z,33.20
2018-07-27T16:39:11.327Z,33.30
2018-07-27T16:41:38.926Z,33.30
2018-07-27T16:44:06.234Z,33.10
2018-07-27T16:46:33.382Z,33.10
2018-07-27T16:49:00.656Z,33.00
2018-07-27T16:51:27.805Z,32.90
2018-07-27T16:53:55.101Z,32.80
2018-07-27T16:56:22.452Z,32.80
2018-07-27T16:58:49.601Z,32.80
2018-07-27T17:01:16.907Z,32.70
2018-07-27T17:03:44.079Z,32.70
2018-07-27T17:06:11.298Z,32.70
2018-07-27T17:08:38.559Z,32.80
2018-07-27T17:11:05.756Z,32.60
2018-07-27T17:13:32.897Z,32.60
2018-07-27T17:16:00.057Z,32.60
2018-07-27T17:18:27.341Z,32.60
2018-07-27T17:20:54.476Z,32.50
2018-07-27T17:23:21.621Z,32.50
2018-07-27T17:25:48.774Z,32.50
2018-07-27T17:28:15.897Z,32.50
2018-07-27T17:30:43.057Z,32.50
2018-07-27T17:33:10.198Z,32.50
2018-07-27T17:35:37.378Z,32.50
2018-07-27T17:38:05.185Z,32.50
2018-07-27T17:40:32.324Z,32.50
2018-07-27T17:42:59.487Z,32.40
2018-07-27T17:45:26.667Z,32.40
2018-07-27T17:47:53.784Z,32.40
2018-07-27T17:50:20.926Z,32.40
2018-07-27T17:52:48.087Z,32.30
2018-07-27T17:55:15.231Z,32.30
2018-07-27T17:57:42.366Z,32.20
2018-07-27T18:00:09.733Z,32.30
2018-07-27T18:02:37.206Z,32.20
2018-07-27T18:05:04.554Z,32.20
2018-07-27T18:07:31.777Z,32.10
2018-07-27T18:09:58.815Z,32.10
2018-07-27T18:12:25.931Z,32.10
2018-07-27T18:14:53.052Z,32.10
2018-07-27T18:17:20.192Z,31.90
2018-07-27T18:19:47.346Z,31.90
2018-07-27T18:22:14.487Z,32.00
2018-07-27T18:24:41.613Z,31.90
2018-07-27T18:27:08.845Z,31.80
2018-07-27T18:29:36.289Z,31.70
2018-07-27T18:32:03.474Z,31.80
2018-07-27T18:34:30.617Z,31.80
2018-07-27T18:36:57.765Z,31.70
2018-07-27T18:39:24.921Z,31.50
2018-07-27T18:41:52.085Z,31.40
2018-07-27T18:44:19.238Z,31.20
2018-07-27T18:46:46.403Z,31.10
2018-07-27T18:49:13.556Z,31.10
2018-07-27T18:51:40.750Z,31.10
2018-07-27T18:54:07.951Z,31.00
2018-07-27T18:56:35.232Z,30.90
2018-07-27T18:59:02.371Z,30.70
2018-07-27T19:01:29.551Z,30.40
2018-07-27T19:03:56.666Z,30.10
2018-07-27T19:06:23.810Z,29.90
2018-07-27T19:08:50.919Z,29.70
2018-07-27T19:11:18.118Z,29.60
2018-07-27T19:13:45.260Z,29.40
2018-07-27T19:16:12.407Z,29.30
2018-07-27T19:18:39.635Z,29.10
2018-07-27T19:21:06.804Z,28.90
2018-07-27T19:23:33.993Z,28.80
2018-07-27T19:26:01.151Z,28.90
2018-07-27T19:28:28.352Z,28.80
2018-07-27T19:30:55.533Z,28.70
2018-07-27T19:33:22.658Z,28.60
2018-07-27T19:35:49.774Z,28.50
2018-07-27T19:38:16.927Z,28.50
2018-07-27T19:40:44.106Z,28.40
2018-07-27T19:43:11.237Z,28.30
2018-07-27T19:45:38.561Z,28.20
2018-07-27T19:48:05.931Z,28.00
2018-07-27T19:50:33.071Z,28.00
2018-07-27T19:53:00.226Z,27.90
2018-07-27T19:55:27.433Z,27.90
2018-07-27T19:57:54.611Z,27.80
2018-07-27T20:00:21.793Z,27.80
2018-07-27T20:02:48.943Z,27.70
2018-07-27T20:05:16.107Z,27.60
2018-07-27T20:07:43.313Z,27.60
2018-07-27T20:10:10.572Z,27.50
2018-07-27T20:12:38.105Z,27.50
2018-07-27T20:15:05.774Z,27.50
2018-07-27T20:17:32.922Z,27.50
2018-07-27T20:20:00.076Z,27.50
2018-07-27T20:22:27.256Z,27.50
2018-07-27T20:24:54.424Z,27.60
2018-07-27T20:27:21.809Z,27.50
2018-07-27T20:29:48.979Z,27.50
2018-07-27T20:32:16.141Z,27.40
2018-07-27T20:34:43.463Z,27.30
2018-07-27T20:37:10.703Z,27.20
2018-07-27T20:39:38.064Z,27.10
2018-07-27T20:42:05.629Z,27.20
2018-07-27T20:44:32.845Z,27.20
2018-07-27T20:47:00.005Z,27.00
2018-07-27T20:49:27.134Z,27.00
2018-07-27T20:51:58.070Z,27.00
2018-07-27T20:54:25.225Z,26.90
2018-07-27T20:56:52.469Z,26.90
2018-07-27T20:59:19.628Z,26.70
2018-07-27T21:01:46.801Z,26.60
2018-07-27T21:04:13.943Z,26.60
2018-07-27T21:06:41.456Z,26.50
2018-07-27T21:09:09.581Z,26.50
2018-07-27T21:11:36.865Z,26.60
2018-07-27T21:14:04.066Z,26.60
2018-07-27T21:16:31.221Z,26.60
2018-07-27T21:18:58.363Z,26.60
2018-07-27T21:21:25.486Z,26.70
2018-07-27T21:23:52.618Z,26.70
2018-07-27T21:26:19.766Z,26.70
2018-07-27T21:28:47.103Z,26.60
2018-07-27T21:31:14.246Z,26.70
2018-07-27T21:33:41.434Z,26.70
2018-07-27T21:36:08.597Z,26.60
2018-07-27T21:38:35.751Z,26.50
2018-07-27T21:41:02.912Z,26.40
2018-07-27T21:43:30.030Z,26.30
2018-07-27T21:45:57.166Z,26.30
2018-07-27T21:48:24.312Z,26.30
2018-07-27T21:50:51.468Z,26.20
2018-07-27T21:53:18.618Z,26.10
2018-07-27T21:55:45.721Z,26.20
2018-07-27T21:58:12.880Z,26.20
2018-07-27T22:00:40.097Z,26.30
2018-07-27T22:03:07.473Z,26.20
2018-07-27T22:05:34.922Z,26.00
2018-07-27T22:08:02.048Z,26.00
2018-07-27T22:10:29.200Z,25.90
2018-07-27T22:12:56.694Z,25.90
2018-07-27T22:15:24.973Z,26.00
2018-07-27T22:17:52.262Z,26.00
2018-07-27T22:20:20.237Z,25.90
2018-07-27T22:22:47.709Z,25.80
2018-07-27T22:25:14.853Z,25.80
2018-07-27T22:27:42.305Z,25.90
2018-07-27T22:30:10.573Z,25.70
2018-07-27T22:32:37.825Z,25.70
2018-07-27T22:35:05.027Z,25.80
2018-07-27T22:37:32.146Z,25.70
2018-07-27T22:39:59.278Z,25.70
2018-07-27T22:42:26.443Z,25.70
2018-07-27T22:44:53.557Z,25.60
2018-07-27T22:47:20.675Z,25.50
2018-07-27T22:49:47.848Z,25.50
2018-07-27T22:52:14.989Z,25.50
2018-07-27T22:54:42.132Z,25.40
2018-07-27T22:57:09.295Z,25.40
2018-07-27T22:59:36.546Z,25.50
2018-07-27T23:02:03.688Z,25.30
2018-07-27T23:04:30.798Z,25.30
2018-07-27T23:06:57.913Z,25.40
2018-07-27T23:09:25.096Z,25.50
2018-07-27T23:11:52.236Z,25.50
2018-07-27T23:14:19.341Z,25.40
2018-07-27T23:16:46.509Z,25.40
2018-07-27T23:19:13.762Z,25.30
2018-07-27T23:21:40.991Z,25.30
2018-07-27T23:24:08.201Z,25.20
2018-07-27T23:26:35.454Z,25.30
2018-07-27T23:29:02.593Z,25.30
2018-07-27T23:31:29.764Z,25.20
2018-07-27T23:33:57.909Z,25.10
2018-07-27T23:36:25.095Z,25.00
2018-07-27T23:38:52.284Z,25.00
2018-07-27T23:41:19.435Z,25.00
2018-07-27T23:43:46.602Z,25.00
2018-07-27T23:46:13.827Z,25.00
2018-07-27T23:48:41.029Z,25.00
2018-07-27T23:51:08.293Z,24.90
2018-07-27T23:53:35.522Z,24.80
2018-07-27T23:56:02.682Z,24.80
2018-07-27T23:58:29.861Z,24.80
